createdAt,value
2022-11-20T00:01:17.743Z,98234.19
2022-11-20T00:03:45.114Z,98234.53
2022-11-20T00:06:14.479Z,98232.91
2022-11-20T00:08:41.151Z,98231.72
2022-11-20T00:11:15.273Z,98239.44
2022-11-20T00:13:42.837Z,98235.81
2022-11-20T00:16:12.655Z,98238.00
2022-11-20T00:18:39.187Z,98236.53
2022-11-20T00:21:25.829Z,98242.22
2022-11-20T00:23:55.286Z,98246.41
2022-11-20T00:26:23.146Z,98247.91
2022-11-20T00:28:55.685Z,98243.97
2022-11-20T00:31:22.391Z,98243.38
2022-11-20T00:33:49.304Z,98244.53
2022-11-20T00:36:18.269Z,98240.94
2022-11-20T00:38:45.566Z,98245.94
2022-11-20T00:41:14.935Z,98244.19
2022-11-20T00:43:42.291Z,98244.06
2022-11-20T00:46:12.803Z,98244.06
2022-11-20T00:48:39.252Z,98243.94
2022-11-20T00:51:06.242Z,98245.66
2022-11-20T00:53:32.765Z,98242.41
2022-11-20T00:56:01.648Z,98241.97
2022-11-20T00:58:36.376Z,98250.56
2022-11-20T01:01:07.931Z,98251.03
2022-11-20T01:03:36.503Z,98259.03
2022-11-20T01:06:15.044Z,98260.31
2022-11-20T01:08:41.864Z,98256.38
2022-11-20T01:11:17.342Z,98268.81
2022-11-20T01:13:44.279Z,98265.00
2022-11-20T01:16:26.476Z,98262.53
2022-11-20T01:18:56.670Z,98257.44
2022-11-20T01:21:26.991Z,98272.06
2022-11-20T01:23:53.854Z,98270.56
2022-11-20T01:26:25.534Z,98260.69
2022-11-20T01:28:52.527Z,98270.47
2022-11-20T01:31:21.601Z,98269.16
2022-11-20T01:33:51.028Z,98273.84
2022-11-20T01:36:19.745Z,98275.59
2022-11-20T01:38:46.536Z,98273.53
2022-11-20T01:41:33.015Z,98273.38
2022-11-20T01:44:00.982Z,98264.41
2022-11-20T01:46:27.518Z,98269.78
2022-11-20T01:49:15.956Z,98282.34
2022-11-20T01:51:47.592Z,98279.31
2022-11-20T01:54:23.829Z,98279.06
2022-11-20T01:56:55.589Z,98287.44
2022-11-20T01:59:26.972Z,98279.66
2022-11-20T02:01:54.201Z,98279.06
2022-11-20T02:04:21.729Z,98286.06
2022-11-20T02:06:59.043Z,98286.63
2022-11-20T02:09:25.733Z,98289.19
2022-11-20T02:11:53.258Z,98289.91
2022-11-20T02:14:20.428Z,98289.19
2022-11-20T02:16:48.921Z,98287.56
2022-11-20T02:19:25.976Z,98285.78
2022-11-20T02:22:19.491Z,98284.03
2022-11-20T02:24:48.628Z,98287.75
2022-11-20T02:27:17.676Z,98280.31
2022-11-20T02:29:47.199Z,98286.56
2022-11-20T02:32:34.893Z,98287.75
2022-11-20T02:35:30.366Z,98285.09
2022-11-20T02:38:00.382Z,98290.53
2022-11-20T02:40:27.641Z,98285.41
2022-11-20T02:42:55.166Z,98292.16
2022-11-20T02:45:22.250Z,98290.41
2022-11-20T02:47:48.781Z,98289.44
2022-11-20T02:50:15.854Z,98285.88
2022-11-20T02:52:42.856Z,98278.31
2022-11-20T02:55:09.803Z,98277.50
2022-11-20T02:57:36.216Z,98280.16
2022-11-20T03:00:04.476Z,98278.91
2022-11-20T03:02:31.918Z,98281.31
2022-11-20T03:04:58.437Z,98283.19
2022-11-20T03:07:25.136Z,98274.72
2022-11-20T03:09:51.676Z,98271.09
2022-11-20T03:12:18.133Z,98291.09
2022-11-20T03:14:47.758Z,98275.41
2022-11-20T03:17:17.604Z,98280.31
2022-11-20T03:19:44.002Z,98278.38
2022-11-20T03:22:10.486Z,98276.00
2022-11-20T03:24:36.893Z,98272.63
2022-11-20T03:27:03.334Z,98279.84
2022-11-20T03:29:29.895Z,98265.88
2022-11-20T03:31:56.329Z,98268.44
2022-11-20T03:34:22.929Z,98271.41
2022-11-20T03:36:49.394Z,98270.66
2022-11-20T03:39:15.847Z,98272.75
2022-11-20T03:41:43.081Z,98271.72
2022-11-20T03:44:12.310Z,98277.78
2022-11-20T03:46:39.496Z,98285.19
2022-11-20T03:49:06.037Z,98288.81
2022-11-20T03:51:35.072Z,98294.72
2022-11-20T03:54:07.031Z,98295.53
2022-11-20T03:56:36.444Z,98298.56
2022-11-20T03:59:03.699Z,98298.13
2022-11-20T04:01:35.931Z,98302.31
2022-11-20T04:04:02.753Z,98299.28
2022-11-20T04:06:34.134Z,98306.81
2022-11-20T04:09:00.684Z,98306.09
2022-11-20T04:11:32.374Z,98312.34
2022-11-20T04:14:01.604Z,98310.59
2022-11-20T04:16:31.709Z,98309.22
2022-11-20T04:19:00.027Z,98304.69
2022-11-20T04:21:27.562Z,98303.63
2022-11-20T04:23:55.080Z,98299.44
2022-11-20T04:26:23.604Z,98303.63
2022-11-20T04:28:50.321Z,98302.00
2022-11-20T04:31:19.827Z,98307.34
2022-11-20T04:33:46.887Z,98300.66
2022-11-20T04:36:15.675Z,98299.75
2022-11-20T04:38:42.737Z,98301.72
2022-11-20T04:41:16.923Z,98301.50
2022-11-20T04:43:48.579Z,98303.81
2022-11-20T04:46:15.625Z,98307.16
2022-11-20T04:48:42.076Z,98301.47
2022-11-20T04:51:08.527Z,98302.72
2022-11-20T04:53:35.022Z,98301.91
2022-11-20T04:56:06.452Z,98302.13
2022-11-20T04:58:33.084Z,98297.81
2022-11-20T05:01:20.769Z,98299.78
2022-11-20T05:03:47.350Z,98299.78
2022-11-20T05:06:15.729Z,98293.38
2022-11-20T05:08:42.366Z,98289.97
2022-11-20T05:11:15.161Z,98289.16
2022-11-20T05:13:42.208Z,98284.63
2022-11-20T05:16:14.168Z,98300.66
2022-11-20T05:18:41.536Z,98285.50
2022-11-20T05:21:09.388Z,98287.75
2022-11-20T05:23:37.029Z,98292.63
2022-11-20T05:26:04.598Z,98284.72
2022-11-20T05:28:32.040Z,98300.66
2022-11-20T05:31:09.031Z,98294.72
2022-11-20T05:33:36.404Z,98299.59
2022-11-20T05:36:04.959Z,98297.38
2022-11-20T05:38:31.428Z,98301.81
2022-11-20T05:41:07.359Z,98297.97
2022-11-20T05:43:38.485Z,98300.56
2022-11-20T05:46:06.672Z,98306.72
2022-11-20T05:48:34.037Z,98305.09
2022-11-20T05:51:02.151Z,98312.19
2022-11-20T05:53:28.804Z,98306.41
2022-11-20T05:56:04.098Z,98307.00
2022-11-20T05:58:31.600Z,98308.63
2022-11-20T06:01:29.374Z,98312.81
2022-11-20T06:03:56.146Z,98305.25
2022-11-20T06:06:23.318Z,98297.69
2022-11-20T06:08:50.062Z,98302.91
2022-11-20T06:11:17.455Z,98303.72
2022-11-20T06:13:44.351Z,98303.72
2022-11-20T06:16:12.150Z,98300.69
2022-11-20T06:18:38.938Z,98291.94
2022-11-20T06:21:08.203Z,98300.06
2022-11-20T06:23:35.712Z,98304.34
2022-11-20T06:26:10.422Z,98307.53
2022-11-20T06:28:37.102Z,98305.69
2022-11-20T06:31:04.179Z,98299.28
2022-11-20T06:33:30.989Z,98309.19
2022-11-20T06:36:01.664Z,98309.53
2022-11-20T06:38:30.367Z,98303.50
2022-11-20T06:40:57.133Z,98314.69
2022-11-20T06:43:24.345Z,98313.00
2022-11-20T06:45:55.080Z,98307.31
2022-11-20T06:48:21.927Z,98308.28
2022-11-20T06:50:48.433Z,98299.09
2022-11-20T06:53:14.938Z,98295.47
2022-11-20T06:55:45.621Z,98305.34
2022-11-20T06:58:13.070Z,98300.81
2022-11-20T07:00:39.555Z,98304.44
2022-11-20T07:03:07.395Z,98295.41
2022-11-20T07:05:34.524Z,98297.56
2022-11-20T07:08:01.013Z,98296.22
2022-11-20T07:10:27.959Z,98299.25
2022-11-20T07:12:54.860Z,98305.19
2022-11-20T07:15:22.970Z,98310.88
2022-11-20T07:17:49.613Z,98314.50
2022-11-20T07:20:16.704Z,98307.28
2022-11-20T07:22:43.663Z,98312.84
2022-11-20T07:25:10.774Z,98307.97
2022-11-20T07:27:37.457Z,98312.75
2022-11-20T07:30:05.241Z,98314.97
2022-11-20T07:32:32.013Z,98319.03
2022-11-20T07:34:58.470Z,98318.31
2022-11-20T07:37:24.923Z,98325.88
2022-11-20T07:39:51.302Z,98320.31
2022-11-20T07:42:17.680Z,98325.53
2022-11-20T07:44:44.064Z,98319.13
2022-11-20T07:47:10.447Z,98317.03
2022-11-20T07:49:36.895Z,98318.69
2022-11-20T07:52:05.343Z,98318.81
2022-11-20T07:54:31.954Z,98331.25
2022-11-20T07:56:58.360Z,98326.06
2022-11-20T07:59:24.763Z,98328.88
2022-11-20T08:01:51.275Z,98326.16
2022-11-20T08:04:17.735Z,98323.38
2022-11-20T08:06:44.150Z,98328.88
2022-11-20T08:09:12.238Z,98333.31
2022-11-20T08:12:10.768Z,98335.88
2022-11-20T08:14:37.220Z,98331.69
2022-11-20T08:17:03.660Z,98345.53
2022-11-20T08:19:30.460Z,98341.47
2022-11-20T08:21:56.958Z,98360.22
2022-11-20T08:24:23.415Z,98349.16
2022-11-20T08:26:49.803Z,98346.63
2022-11-20T08:29:16.213Z,98350.47
2022-11-20T08:31:42.690Z,98351.50
2022-11-20T08:34:09.926Z,98351.50
2022-11-20T08:36:37.677Z,98359.31
2022-11-20T08:39:04.181Z,98359.59
2022-11-20T08:41:33.959Z,98371.00
2022-11-20T08:44:02.969Z,98366.25
2022-11-20T08:46:37.975Z,98371.59
2022-11-20T08:49:05.248Z,98372.88
2022-11-20T08:51:31.664Z,98374.03
2022-11-20T08:53:58.182Z,98373.22
2022-11-20T08:56:25.012Z,98374.97
2022-11-20T08:59:20.102Z,98375.66
2022-11-20T09:01:40.134Z,98379.84
2022-11-20T09:04:06.636Z,98375.19
2022-11-20T09:06:33.030Z,98375.91
2022-11-20T09:09:03.512Z,98374.34
2022-11-20T09:11:33.070Z,98374.19
2022-11-20T09:13:59.603Z,98372.91
2022-11-20T09:16:26.003Z,98377.91
2022-11-20T09:19:02.160Z,98376.56
2022-11-20T09:21:38.923Z,98374.81
2022-11-20T09:24:06.296Z,98379.53
2022-11-20T09:26:32.720Z,98387.09
2022-11-20T09:28:59.145Z,98389.94
2022-11-20T09:31:26.990Z,98391.69
2022-11-20T09:33:53.461Z,98386.44
2022-11-20T09:36:20.453Z,98394.50
2022-11-20T09:38:47.500Z,98396.03
2022-11-20T09:41:43.757Z,98389.72
2022-11-20T09:44:25.470Z,98397.19
2022-11-20T09:47:18.815Z,98389.50
2022-11-20T09:50:13.821Z,98382.97
2022-11-20T09:52:56.390Z,98381.34
2022-11-20T09:55:22.865Z,98387.22
2022-11-20T09:57:52.910Z,98380.94
2022-11-20T10:00:22.185Z,98380.13
2022-11-20T10:02:59.146Z,98375.66
2022-11-20T10:05:40.400Z,98382.31
2022-11-20T10:08:31.298Z,98387.09
2022-11-20T10:11:18.082Z,98384.84
2022-11-20T10:14:07.866Z,98389.84
2022-11-20T10:16:55.971Z,98377.06
2022-11-20T10:19:44.358Z,98382.81
2022-11-20T10:22:29.506Z,98385.63
2022-11-20T10:25:08.269Z,98383.81
2022-11-20T10:27:43.657Z,98379.53
2022-11-20T10:30:13.595Z,98376.00
2022-11-20T10:33:05.654Z,98379.16
2022-11-20T10:35:46.946Z,98379.19
2022-11-20T10:38:22.600Z,98368.31
2022-11-20T10:41:20.694Z,98374.56
2022-11-20T10:43:49.261Z,98367.09
2022-11-20T10:46:23.255Z,98376.66
2022-11-20T10:48:50.563Z,98369.88
2022-11-20T10:51:23.787Z,98370.28
2022-11-20T10:54:19.410Z,98357.34
2022-11-20T10:57:02.168Z,98352.31
2022-11-20T10:59:39.527Z,98349.75
2022-11-20T11:02:21.385Z,98348.41
2022-11-20T11:04:50.900Z,98348.31
2022-11-20T11:07:29.938Z,98338.03
2022-11-20T11:09:57.841Z,98334.88
2022-11-20T11:12:29.501Z,98329.28
2022-11-20T11:14:58.550Z,98324.13
2022-11-20T11:17:32.270Z,98320.06
2022-11-20T11:20:17.945Z,98319.22
2022-11-20T11:22:51.770Z,98310.56
2022-11-20T11:25:27.637Z,98302.03
2022-11-20T11:27:57.218Z,98296.72
2022-11-20T11:30:25.903Z,98290.88
2022-11-20T11:33:04.109Z,98294.75
2022-11-20T11:35:30.572Z,98281.31
2022-11-20T11:38:06.074Z,98286.75
2022-11-20T11:40:35.514Z,98279.44
2022-11-20T11:43:06.161Z,98275.47
2022-11-20T11:45:32.614Z,98265.38
2022-11-20T11:48:04.320Z,98256.41
2022-11-20T11:50:31.990Z,98260.66
2022-11-20T11:53:15.726Z,98251.31
2022-11-20T11:55:50.541Z,98230.19
2022-11-20T11:58:47.033Z,98232.22
2022-11-20T12:01:32.949Z,98226.88
2022-11-20T12:04:30.176Z,98220.34
2022-11-20T12:07:24.214Z,98216.63
2022-11-20T12:09:55.431Z,98210.06
2022-11-20T12:12:28.466Z,98209.66
2022-11-20T12:14:57.109Z,98206.41
2022-11-20T12:17:23.723Z,98209.13
2022-11-20T12:19:50.116Z,98212.31
2022-11-20T12:22:53.814Z,98210.59
2022-11-20T12:25:32.697Z,98205.19
2022-11-20T12:28:27.441Z,98205.56
2022-11-20T12:31:04.517Z,98206.59
2022-11-20T12:34:06.280Z,98206.44
2022-11-20T12:36:56.535Z,98206.78
2022-11-20T12:39:28.788Z,98206.69
2022-11-20T12:42:32.976Z,98208.41
2022-11-20T12:45:18.258Z,98209.34
2022-11-20T12:47:54.519Z,98208.03
2022-11-20T12:51:13.544Z,98208.53
2022-11-20T12:53:50.514Z,98211.09
2022-11-20T12:56:16.869Z,98213.13
2022-11-20T12:59:06.942Z,98221.53
2022-11-20T13:01:51.258Z,98223.63
2022-11-20T13:04:28.601Z,98210.28
2022-11-20T13:06:56.091Z,98216.72
2022-11-20T13:09:24.759Z,98209.22
2022-11-20T13:12:09.061Z,98200.50
2022-11-20T13:14:41.102Z,98185.72
2022-11-20T13:17:17.126Z,98194.72
2022-11-20T13:19:52.925Z,98184.38
2022-11-20T13:22:31.103Z,98180.09
2022-11-20T13:24:57.618Z,98179.00
2022-11-20T13:27:24.856Z,98179.50
2022-11-20T13:30:19.050Z,98173.84
2022-11-20T13:33:07.600Z,98174.47
2022-11-20T13:35:36.826Z,98174.94
2022-11-20T13:38:11.469Z,98162.28
2022-11-20T13:40:53.292Z,98160.41
2022-11-20T13:43:27.854Z,98159.75
2022-11-20T13:46:01.554Z,98152.97
2022-11-20T13:48:32.551Z,98147.41
2022-11-20T13:51:04.729Z,98139.16
2022-11-20T13:53:37.773Z,98137.28
2022-11-20T13:56:18.764Z,98134.94
2022-11-20T13:59:12.140Z,98139.75
2022-11-20T14:01:46.270Z,98141.25
2022-11-20T14:04:21.403Z,98144.75
2022-11-20T14:06:49.698Z,98133.84
2022-11-20T14:09:27.961Z,98134.31
2022-11-20T14:11:54.370Z,98133.09
2022-11-20T14:14:23.915Z,98126.34
2022-11-20T14:16:52.131Z,98124.94
2022-11-20T14:19:21.578Z,98114.44
2022-11-20T14:21:54.239Z,98116.56
2022-11-20T14:24:23.700Z,98108.88
2022-11-20T14:26:52.101Z,98112.81
2022-11-20T14:29:21.146Z,98112.69
2022-11-20T14:31:54.211Z,98110.69
2022-11-20T14:34:28.954Z,98108.06
2022-11-20T14:37:01.349Z,98106.56
2022-11-20T14:39:36.304Z,98103.31
2022-11-20T14:42:15.204Z,98100.63
2022-11-20T14:44:42.922Z,98092.97
2022-11-20T14:47:13.162Z,98085.72
2022-11-20T14:49:40.724Z,98081.06
2022-11-20T14:52:27.506Z,98077.84
2022-11-20T14:55:01.967Z,98065.16
2022-11-20T14:57:36.763Z,98062.22
2022-11-20T15:00:08.358Z,98062.47
2022-11-20T15:02:35.033Z,98060.56
2022-11-20T15:05:06.336Z,98061.94
2022-11-20T15:07:36.824Z,98069.66
2022-11-20T15:10:10.282Z,98073.28
2022-11-20T15:12:41.348Z,98072.06
2022-11-20T15:15:13.208Z,98060.84
2022-11-20T15:17:41.879Z,98059.97
2022-11-20T15:20:15.689Z,98063.66
2022-11-20T15:22:42.529Z,98060.25
2022-11-20T15:25:14.174Z,98064.25
2022-11-20T15:27:40.873Z,98053.81
2022-11-20T15:30:20.058Z,98049.75
2022-11-20T15:32:47.370Z,98047.88
2022-11-20T15:35:15.151Z,98038.72
2022-11-20T15:37:42.048Z,98027.47
2022-11-20T15:40:09.528Z,98026.38
2022-11-20T15:42:36.297Z,98021.13
2022-11-20T15:45:03.135Z,98007.94
2022-11-20T15:47:34.191Z,98025.00
2022-11-20T15:50:00.664Z,98021.16
2022-11-20T15:52:28.492Z,98019.75
2022-11-20T15:54:55.043Z,98017.88
2022-11-20T15:57:21.562Z,98037.94
2022-11-20T15:59:48.091Z,98034.38
2022-11-20T16:02:19.416Z,98043.69
2022-11-20T16:04:46.095Z,98036.13
2022-11-20T16:07:12.594Z,98041.91
2022-11-20T16:09:38.998Z,98046.75
2022-11-20T16:12:05.737Z,98056.84
2022-11-20T16:14:50.523Z,98051.34
2022-11-20T16:17:36.925Z,98042.41
2022-11-20T16:20:03.516Z,98052.91
2022-11-20T16:22:29.956Z,98043.22
2022-11-20T16:24:56.354Z,98054.75
2022-11-20T16:27:22.785Z,98048.84
2022-11-20T16:29:49.189Z,98066.97
2022-11-20T16:32:16.681Z,98061.13
2022-11-20T16:34:43.072Z,98066.97
2022-11-20T16:37:09.500Z,98055.69
2022-11-20T16:39:35.931Z,98048.69
2022-11-20T16:42:05.230Z,98046.50
2022-11-20T16:44:31.664Z,98041.13
2022-11-20T16:46:58.097Z,98041.41
2022-11-20T16:49:24.862Z,98037.06
2022-11-20T16:51:51.845Z,98035.72
2022-11-20T16:54:21.242Z,98041.41
2022-11-20T16:56:48.329Z,98040.63
2022-11-20T16:59:14.856Z,98043.28
2022-11-20T17:01:43.096Z,98035.13
2022-11-20T17:04:09.965Z,98049.53
2022-11-20T17:06:40.322Z,98053.59
2022-11-20T17:09:09.524Z,98056.41
2022-11-20T17:11:37.153Z,98053.69
2022-11-20T17:14:04.334Z,98058.22
2022-11-20T17:16:31.329Z,98060.66
2022-11-20T17:19:02.928Z,98060.91
2022-11-20T17:21:30.421Z,98060.50
2022-11-20T17:24:01.151Z,98060.50
2022-11-20T17:26:28.780Z,98063.72
2022-11-20T17:29:06.597Z,98062.94
2022-11-20T17:31:34.423Z,98060.50
2022-11-20T17:34:01.666Z,98055.63
2022-11-20T17:36:29.280Z,98061.53
2022-11-20T17:38:55.722Z,98062.59
2022-11-20T17:41:23.461Z,98056.13
2022-11-20T17:43:50.104Z,98067.38
2022-11-20T17:46:18.828Z,98066.75
2022-11-20T17:48:46.606Z,98063.25
2022-11-20T17:51:19.266Z,98060.41
2022-11-20T17:53:49.569Z,98059.84
2022-11-20T17:56:35.340Z,98056.59
2022-11-20T17:59:06.496Z,98055.22
2022-11-20T18:01:33.292Z,98063.09
2022-11-20T18:03:59.813Z,98060.97
2022-11-20T18:06:28.276Z,98054.78
2022-11-20T18:08:55.283Z,98031.41
2022-11-20T18:11:27.801Z,98037.72
2022-11-20T18:14:15.951Z,98051.34
2022-11-20T18:16:48.171Z,98048.75
2022-11-20T18:19:19.559Z,98047.97
2022-11-20T18:21:46.034Z,98048.50
2022-11-20T18:24:12.504Z,98057.47
2022-11-20T18:26:44.067Z,98043.66
2022-11-20T18:29:11.430Z,98058.34
2022-11-20T18:31:37.984Z,98059.44
2022-11-20T18:34:04.906Z,98072.56
2022-11-20T18:36:32.611Z,98073.38
2022-11-20T18:39:00.448Z,98081.66
2022-11-20T18:41:47.424Z,98086.41
2022-11-20T18:44:37.719Z,98097.16
2022-11-20T18:47:13.771Z,98082.59
2022-11-20T18:49:41.820Z,98082.38
2022-11-20T18:52:08.313Z,98082.38
2022-11-20T18:54:36.945Z,98086.56
2022-11-20T18:57:04.804Z,98080.28
2022-11-20T18:59:31.638Z,98073.78
2022-11-20T19:01:58.497Z,98070.72
2022-11-20T19:04:25.275Z,98072.25
2022-11-20T19:06:56.014Z,98067.25
2022-11-20T19:09:23.872Z,98063.69
2022-11-20T19:11:50.933Z,98082.31
2022-11-20T19:14:17.820Z,98078.22
2022-11-20T19:16:47.227Z,98089.28
2022-11-20T19:19:15.633Z,98083.78
2022-11-20T19:21:42.349Z,98088.13
2022-11-20T19:24:09.581Z,98090.53
2022-11-20T19:26:37.482Z,98084.25
2022-11-20T19:29:05.397Z,98091.13
2022-11-20T19:31:32.678Z,98093.22
2022-11-20T19:34:02.102Z,98101.81
2022-11-20T19:36:44.551Z,98105.66
2022-11-20T19:39:12.368Z,98110.78
2022-11-20T19:41:41.008Z,98098.00
2022-11-20T19:44:13.994Z,98098.91
2022-11-20T19:46:41.187Z,98098.44
2022-11-20T19:49:10.295Z,98104.97
2022-11-20T19:51:38.986Z,98105.44
2022-11-20T19:54:06.149Z,98099.84
2022-11-20T19:56:33.452Z,98100.09
2022-11-20T19:59:00.673Z,98103.91
2022-11-20T20:01:29.932Z,98103.78
2022-11-20T20:04:01.447Z,98099.50
2022-11-20T20:06:28.785Z,98126.84
2022-11-20T20:09:00.955Z,98113.13
2022-11-20T20:11:29.937Z,98117.75
2022-11-20T20:13:58.930Z,98115.41
2022-11-20T20:16:26.455Z,98101.84
2022-11-20T20:18:58.313Z,98107.06
2022-11-20T20:21:24.905Z,98109.72
2022-11-20T20:23:55.782Z,98108.44
2022-11-20T20:26:24.187Z,98115.78
2022-11-20T20:28:50.946Z,98129.25
2022-11-20T20:31:20.135Z,98141.22
2022-11-20T20:33:46.821Z,98146.47
2022-11-20T20:36:15.183Z,98156.00
2022-11-20T20:38:42.377Z,98157.25
2022-11-20T20:41:08.860Z,98168.03
2022-11-20T20:43:56.301Z,98176.06
2022-11-20T20:46:23.699Z,98176.56
2022-11-20T20:48:54.181Z,98171.13
2022-11-20T20:51:21.571Z,98170.41
2022-11-20T20:53:48.056Z,98174.94
2022-11-20T20:56:14.957Z,98179.81
2022-11-20T20:58:41.799Z,98177.38
2022-11-20T21:01:14.006Z,98184.34
2022-11-20T21:03:41.165Z,98184.69
2022-11-20T21:06:09.874Z,98191.59
2022-11-20T21:08:40.137Z,98205.88
2022-11-20T21:11:10.008Z,98201.22
2022-11-20T21:13:37.520Z,98216.22
2022-11-20T21:16:05.170Z,98219.78
2022-11-20T21:18:33.627Z,98207.47
2022-11-20T21:21:18.965Z,98208.09
2022-11-20T21:23:47.411Z,98213.44
2022-11-20T21:26:15.852Z,98209.09
2022-11-20T21:28:42.850Z,98221.41
2022-11-20T21:31:14.600Z,98219.66
2022-11-20T21:33:43.477Z,98222.81
2022-11-20T21:36:11.996Z,98214.44
2022-11-20T21:38:38.575Z,98216.09
2022-11-20T21:41:07.050Z,98218.41
2022-11-20T21:43:34.199Z,98206.31
2022-11-20T21:46:05.403Z,98213.97
2022-11-20T21:48:33.279Z,98207.44
2022-11-20T21:51:11.248Z,98183.50
2022-11-20T21:53:38.049Z,98178.28
2022-11-20T21:56:06.923Z,98179.59
2022-11-20T21:58:35.177Z,98184.72
2022-11-20T22:01:13.709Z,98189.50
2022-11-20T22:03:40.938Z,98190.09
2022-11-20T22:06:09.183Z,98184.03
2022-11-20T22:08:37.002Z,98190.31
2022-11-20T22:11:09.229Z,98198.22
2022-11-20T22:13:54.545Z,98191.13
2022-11-20T22:16:21.476Z,98200.28
2022-11-20T22:18:50.788Z,98193.66
2022-11-20T22:21:20.091Z,98193.53
2022-11-20T22:23:47.050Z,98200.75
2022-11-20T22:26:18.927Z,98192.97
2022-11-20T22:28:49.827Z,98192.97
2022-11-20T22:31:17.592Z,98178.69
2022-11-20T22:33:44.294Z,98184.13
2022-11-20T22:36:15.716Z,98171.13
2022-11-20T22:38:42.387Z,98180.31
2022-11-20T22:41:28.542Z,98170.66
2022-11-20T22:43:59.748Z,98180.00
2022-11-20T22:46:28.206Z,98175.19
2022-11-20T22:49:04.820Z,98183.22
2022-11-20T22:51:34.010Z,98185.34
2022-11-20T22:54:03.383Z,98187.09
2022-11-20T22:56:30.550Z,98179.28
2022-11-20T22:58:57.003Z,98187.41
2022-11-20T23:01:33.759Z,98188.69
2022-11-20T23:04:05.852Z,98187.88
2022-11-20T23:06:35.666Z,98181.94
2022-11-20T23:09:03.718Z,98173.78
2022-11-20T23:11:31.250Z,98186.03
2022-11-20T23:13:59.922Z,98180.09
2022-11-20T23:16:28.429Z,98169.97
2022-11-20T23:19:04.143Z,98163.47
2022-11-20T23:21:30.793Z,98166.72
2022-11-20T23:23:58.432Z,98171.03
2022-11-20T23:26:30.374Z,98171.38
2022-11-20T23:28:58.448Z,98167.63
2022-11-20T23:31:26.946Z,98162.06
2022-11-20T23:33:53.790Z,98167.50
2022-11-20T23:36:20.595Z,98162.16
2022-11-20T23:38:47.019Z,98167.19
2022-11-20T23:41:14.310Z,98164.16
2022-11-20T23:43:40.931Z,98165.22
2022-11-20T23:46:08.035Z,98169.63
2022-11-20T23:48:37.777Z,98170.31
2022-11-20T23:51:05.767Z,98172.41
2022-11-20T23:53:33.053Z,98167.06
2022-11-20T23:56:02.715Z,98169.72
2022-11-20T23:58:37.812Z,98151.13
